createdAt,value
2019-04-22T00:02:17.109Z,89.70
2019-04-22T00:05:01.009Z,90.30
2019-04-22T00:07:44.879Z,90.60
2019-04-22T00:10:21.191Z,90.90
2019-04-22T00:12:53.037Z,92.00
2019-04-22T00:15:16.767Z,91.60
2019-04-22T00:18:03.445Z,92.00
2019-04-22T00:20:43.627Z,92.70
2019-04-22T00:23:00.171Z,92.10
2019-04-22T00:25:35.050Z,93.10
2019-04-22T00:28:08.691Z,92.80
2019-04-22T00:30:36.058Z,94.20
2019-04-22T00:33:08.077Z,93.60
2019-04-22T00:35:41.638Z,93.60
2019-04-22T00:40:55.911Z,95.10
2019-04-22T00:43:28.754Z,95.00
2019-04-22T00:45:56.265Z,95.20
2019-04-22T00:48:27.907Z,95.30
2019-04-22T00:51:08.774Z,95.90
2019-04-22T00:53:35.466Z,96.60
2019-04-22T00:56:16.739Z,96.40
2019-04-22T01:01:20.453Z,96.90
2019-04-22T01:03:58.432Z,96.80
2019-04-22T01:06:23.093Z,97.30
2019-04-22T01:08:57.962Z,97.40
2019-04-22T01:11:29.997Z,97.90
2019-04-22T01:13:55.781Z,97.90
2019-04-22T01:16:29.831Z,97.90
2019-04-22T01:18:59.467Z,98.30
2019-04-22T01:21:42.141Z,99.00
2019-04-22T01:24:02.714Z,98.70
2019-04-22T01:26:34.503Z,99.10
2019-04-22T01:29:05.098Z,98.80
2019-04-22T01:31:31.543Z,99.00
2019-04-22T01:34:14.142Z,99.10
2019-04-22T01:36:55.503Z,99.00
2019-04-22T01:39:31.947Z,99.30
2019-04-22T01:42:06.218Z,99.60
2019-04-22T01:44:38.417Z,99.30
2019-04-22T01:47:13.493Z,99.60
2019-04-22T01:49:39.868Z,99.70
2019-04-22T01:52:18.637Z,99.90
2019-04-22T01:55:04.702Z,99.90
2019-04-22T01:57:18.756Z,99.80
2019-04-22T01:59:41.351Z,99.70
2019-04-22T02:02:22.158Z,99.80
2019-04-22T02:04:59.863Z,99.90
2019-04-22T02:07:29.275Z,99.90
2019-04-22T02:10:02.350Z,99.90
2019-04-22T02:12:35.473Z,99.90
2019-04-22T02:15:06.587Z,99.90
2019-04-22T02:17:36.667Z,99.90
2019-04-22T02:26:01.128Z,99.90
2019-04-22T02:28:36.731Z,99.90
2019-04-22T02:34:01.278Z,99.90
2019-04-22T02:49:06.078Z,99.90
2019-04-22T02:54:22.334Z,99.90
2019-04-22T03:01:36.156Z,99.90
2019-04-22T03:06:38.544Z,99.90
2019-04-22T03:11:50.025Z,99.90
2019-04-22T03:14:18.938Z,99.90
2019-04-22T03:16:57.285Z,99.90
2019-04-22T03:21:57.713Z,99.10
2019-04-22T03:26:58.522Z,99.10
2019-04-22T03:33:04.866Z,99.10
2019-04-22T03:37:56.329Z,99.20
2019-04-22T03:43:35.626Z,98.90
2019-04-22T03:45:37.828Z,99.30
2019-04-22T03:48:17.588Z,98.70
2019-04-22T03:51:08.024Z,99.20
2019-04-22T03:53:32.941Z,99.90
2019-04-22T03:55:57.557Z,99.90
2019-04-22T03:58:21.462Z,99.90
2019-04-22T04:03:28.842Z,99.90
2019-04-22T04:05:58.884Z,99.90
2019-04-22T04:08:33.035Z,99.90
2019-04-22T04:10:58.097Z,99.90
2019-04-22T04:13:41.512Z,99.90
2019-04-22T04:16:12.851Z,99.90
2019-04-22T04:18:46.709Z,99.90
2019-04-22T04:21:26.698Z,99.90
2019-04-22T04:26:30.796Z,99.90
2019-04-22T04:31:35.989Z,99.90
2019-04-22T04:39:01.030Z,99.90
2019-04-22T04:46:47.478Z,99.90
2019-04-22T04:51:51.274Z,99.80
2019-04-22T04:54:24.446Z,99.90
2019-04-22T04:56:51.453Z,99.90
2019-04-22T04:59:28.151Z,99.30
2019-04-22T05:04:31.730Z,99.90
2019-04-22T05:06:59.931Z,99.30
2019-04-22T05:09:29.750Z,99.20
2019-04-22T05:14:26.819Z,96.80
2019-04-22T05:17:02.249Z,96.80
2019-04-22T05:24:35.045Z,93.30
2019-04-22T05:27:13.318Z,93.20
2019-04-22T05:29:46.407Z,92.20
2019-04-22T05:32:09.171Z,91.40
2019-04-22T05:34:44.491Z,90.50
2019-04-22T05:37:14.811Z,90.40
2019-04-22T05:39:42.469Z,89.30
2019-04-22T05:44:49.608Z,87.10
2019-04-22T05:47:19.556Z,87.10
2019-04-22T05:49:48.091Z,84.00
2019-04-22T05:52:43.202Z,82.50
2019-04-22T05:54:55.296Z,83.30
2019-04-22T05:57:38.250Z,84.70
2019-04-22T06:00:06.307Z,81.30
2019-04-22T06:02:48.806Z,79.50
2019-04-22T06:07:38.686Z,77.70
2019-04-22T06:10:19.861Z,76.10
2019-04-22T06:12:43.983Z,74.90
2019-04-22T06:15:22.343Z,73.70
2019-04-22T06:18:02.996Z,69.50
2019-04-22T06:20:32.548Z,66.60
2019-04-22T06:23:06.135Z,62.70
2019-04-22T06:28:16.060Z,56.70
2019-04-22T06:30:43.835Z,54.80
2019-04-22T06:33:15.000Z,53.60
2019-04-22T06:35:45.761Z,53.20
2019-04-22T06:38:36.253Z,51.90
2019-04-22T06:43:41.520Z,48.00
2019-04-22T06:46:17.070Z,45.60
2019-04-22T06:48:46.014Z,45.40
2019-04-22T06:51:23.810Z,43.60
2019-04-22T06:53:47.593Z,42.90
2019-04-22T06:56:40.599Z,44.10
2019-04-22T06:58:55.124Z,43.00
2019-04-22T07:03:56.981Z,41.10
2019-04-22T07:06:48.318Z,41.80
2019-04-22T07:09:22.030Z,40.90
2019-04-22T07:11:30.283Z,40.10
2019-04-22T07:14:07.546Z,39.50
2019-04-22T07:16:38.089Z,39.40
2019-04-22T07:19:07.720Z,38.60
2019-04-22T07:21:44.086Z,37.10
2019-04-22T07:24:27.470Z,36.70
2019-04-22T07:26:49.198Z,35.40
2019-04-22T07:29:18.985Z,37.10
2019-04-22T07:31:56.264Z,37.00
2019-04-22T07:34:29.716Z,37.90
2019-04-22T07:36:59.084Z,40.10
2019-04-22T07:39:29.824Z,40.40
2019-04-22T07:41:59.515Z,40.40
2019-04-22T07:44:31.250Z,38.80
2019-04-22T07:47:13.888Z,38.80
2019-04-22T07:49:39.003Z,37.40
2019-04-22T07:52:09.820Z,34.90
2019-04-22T07:54:43.384Z,34.00
2019-04-22T07:59:50.967Z,33.60
2019-04-22T08:02:16.275Z,32.30
2019-04-22T08:07:30.364Z,31.70
2019-04-22T08:10:09.146Z,31.60
2019-04-22T08:12:34.913Z,31.90
2019-04-22T08:15:05.761Z,32.10
2019-04-22T08:20:15.606Z,32.00
2019-04-22T08:22:42.693Z,31.80
2019-04-22T08:25:16.760Z,30.60
2019-04-22T08:27:50.795Z,29.30
2019-04-22T08:30:28.333Z,29.70
2019-04-22T08:32:52.737Z,30.10
2019-04-22T08:37:58.946Z,30.00
2019-04-22T08:40:37.600Z,28.80
2019-04-22T08:43:13.738Z,28.90
2019-04-22T08:45:44.319Z,29.10
2019-04-22T08:48:16.353Z,29.00
2019-04-22T08:50:44.579Z,28.20
2019-04-22T08:53:23.671Z,28.20
2019-04-22T08:55:57.944Z,28.40
2019-04-22T09:01:01.077Z,28.10
2019-04-22T09:03:24.354Z,27.70
2019-04-22T09:06:06.459Z,27.40
2019-04-22T09:08:33.867Z,26.70
2019-04-22T09:11:18.489Z,26.10
2019-04-22T09:13:44.893Z,25.40
2019-04-22T09:16:17.200Z,25.70
2019-04-22T09:26:30.370Z,25.30
2019-04-22T09:29:03.299Z,26.00
2019-04-22T09:31:33.640Z,25.70
2019-04-22T09:34:01.086Z,24.50
2019-04-22T09:36:42.026Z,24.70
2019-04-22T09:39:12.128Z,24.20
2019-04-22T09:41:42.081Z,25.10
2019-04-22T09:44:08.112Z,24.30
2019-04-22T09:46:48.421Z,24.50
2019-04-22T09:49:41.102Z,25.00
2019-04-22T09:52:08.537Z,25.30
2019-04-22T09:54:44.152Z,24.50
2019-04-22T09:57:01.896Z,24.40
2019-04-22T09:59:36.718Z,24.30
2019-04-22T10:07:42.308Z,25.60
2019-04-22T10:10:08.964Z,25.40
2019-04-22T10:15:10.127Z,26.10
2019-04-22T10:17:44.030Z,26.50
2019-04-22T10:20:24.860Z,27.00
2019-04-22T10:25:21.600Z,28.50
2019-04-22T10:27:59.937Z,27.30
2019-04-22T10:30:33.859Z,27.40
2019-04-22T10:32:56.374Z,27.70
2019-04-22T10:35:15.559Z,28.50
2019-04-22T10:37:42.901Z,28.70
2019-04-22T10:40:19.664Z,29.70
2019-04-22T10:42:51.444Z,29.90
2019-04-22T10:45:24.029Z,30.60
2019-04-22T10:47:54.421Z,30.00
2019-04-22T10:50:43.027Z,29.50
2019-04-22T10:53:17.603Z,30.70
2019-04-22T10:55:51.316Z,29.90
2019-04-22T10:58:22.845Z,30.50
2019-04-22T11:00:54.403Z,29.00
2019-04-22T11:03:28.391Z,29.40
2019-04-22T11:05:59.256Z,29.00
2019-04-22T11:08:38.919Z,28.90
2019-04-22T11:11:16.189Z,29.40
2019-04-22T11:13:35.969Z,28.90
2019-04-22T11:16:07.718Z,27.90
2019-04-22T11:18:38.056Z,28.80
2019-04-22T11:21:09.632Z,29.00
2019-04-22T11:23:40.703Z,27.40
2019-04-22T11:26:12.187Z,28.10
2019-04-22T11:28:43.407Z,28.50
2019-04-22T11:31:14.764Z,27.80
2019-04-22T11:33:45.407Z,28.00
2019-04-22T11:36:16.002Z,27.80
2019-04-22T11:38:54.043Z,28.00
2019-04-22T11:41:19.509Z,27.60
2019-04-22T11:43:51.365Z,28.30
2019-04-22T11:46:23.126Z,28.70
2019-04-22T11:48:54.102Z,28.40
2019-04-22T11:51:25.773Z,29.10
2019-04-22T11:53:56.736Z,29.90
2019-04-22T11:56:27.239Z,28.90
2019-04-22T11:58:57.582Z,28.80
2019-04-22T12:01:28.829Z,28.90
2019-04-22T12:04:01.993Z,29.80
2019-04-22T12:06:33.752Z,28.90
2019-04-22T12:09:12.133Z,28.60
2019-04-22T12:11:44.333Z,28.90
2019-04-22T12:14:15.881Z,28.80
2019-04-22T12:16:47.757Z,28.40
2019-04-22T12:19:19.031Z,29.00
2019-04-22T12:21:50.917Z,28.60
2019-04-22T12:24:21.598Z,28.40
2019-04-22T12:26:52.774Z,28.60
2019-04-22T12:29:23.160Z,29.00
2019-04-22T12:31:53.727Z,29.10
2019-04-22T12:34:25.655Z,29.60
2019-04-22T12:36:56.384Z,31.10
2019-04-22T12:39:27.491Z,30.10
2019-04-22T12:41:58.428Z,30.20
2019-04-22T12:44:30.508Z,29.90
2019-04-22T12:47:02.657Z,29.70
2019-04-22T12:49:35.626Z,30.30
2019-04-22T12:52:07.195Z,30.60
2019-04-22T12:54:39.084Z,30.10
2019-04-22T12:57:10.399Z,30.00
2019-04-22T12:59:41.818Z,30.00
2019-04-22T13:02:13.454Z,31.30
2019-04-22T13:04:43.874Z,32.70
2019-04-22T13:07:15.661Z,31.40
2019-04-22T13:09:47.370Z,32.00
2019-04-22T13:12:19.257Z,30.30
2019-04-22T13:14:50.708Z,30.40
2019-04-22T13:17:21.105Z,31.70
2019-04-22T13:19:52.436Z,32.40
2019-04-22T13:22:23.228Z,33.90
2019-04-22T13:24:54.087Z,36.00
2019-04-22T13:27:24.818Z,39.40
2019-04-22T13:29:55.319Z,39.50
2019-04-22T13:32:26.871Z,40.10
2019-04-22T13:35:01.482Z,41.60
2019-04-22T13:37:30.773Z,40.80
2019-04-22T13:40:01.344Z,40.90
2019-04-22T13:42:33.387Z,42.40
2019-04-22T13:45:07.569Z,43.70
2019-04-22T13:48:00.468Z,44.00
2019-04-22T13:55:45.120Z,45.60
2019-04-22T13:58:02.576Z,44.60
2019-04-22T14:00:34.442Z,44.70
2019-04-22T14:03:26.635Z,45.40
2019-04-22T14:06:00.834Z,44.50
2019-04-22T14:08:33.185Z,45.20
2019-04-22T14:11:11.851Z,45.90
2019-04-22T14:13:37.715Z,45.20
2019-04-22T14:16:09.029Z,45.70
2019-04-22T14:18:39.408Z,45.60
2019-04-22T14:21:09.793Z,46.00
2019-04-22T14:23:40.572Z,45.90
2019-04-22T14:26:11.226Z,45.90
2019-04-22T14:28:41.854Z,46.10
2019-04-22T14:31:12.783Z,46.20
2019-04-22T14:33:46.588Z,46.20
2019-04-22T14:36:15.432Z,46.80
2019-04-22T14:41:35.787Z,44.30
2019-04-22T14:44:49.502Z,44.70
2019-04-22T14:46:50.150Z,45.60
2019-04-22T14:49:21.935Z,46.30
2019-04-22T14:51:48.850Z,47.00
2019-04-22T14:54:15.472Z,46.30
2019-04-22T14:56:30.529Z,46.10
2019-04-22T14:59:01.145Z,46.10
2019-04-22T15:01:32.921Z,46.10
2019-04-22T15:04:03.480Z,46.20
2019-04-22T15:06:34.141Z,46.00
2019-04-22T15:09:08.040Z,45.80
2019-04-22T15:11:52.043Z,45.60
2019-04-22T15:14:12.343Z,45.90
2019-04-22T15:17:00.612Z,45.70
2019-04-22T15:19:41.784Z,45.50
2019-04-22T15:22:12.664Z,46.00
2019-04-22T15:24:45.039Z,46.60
2019-04-22T15:27:16.251Z,47.20
2019-04-22T15:29:47.351Z,47.00
2019-04-22T15:32:17.865Z,48.30
2019-04-22T15:34:49.217Z,48.50
2019-04-22T15:37:20.475Z,48.40
2019-04-22T15:39:52.070Z,48.10
2019-04-22T15:42:28.693Z,48.30
2019-04-22T15:44:56.010Z,48.10
2019-04-22T15:47:27.042Z,47.90
2019-04-22T15:50:00.172Z,48.40
2019-04-22T15:52:36.533Z,48.20
2019-04-22T15:55:03.022Z,48.40
2019-04-22T15:57:36.446Z,47.70
2019-04-22T16:00:23.682Z,48.10
2019-04-22T16:02:41.834Z,49.20
2019-04-22T16:05:13.135Z,48.90
2019-04-22T16:07:43.990Z,49.60
2019-04-22T16:10:17.655Z,50.20
2019-04-22T16:12:57.588Z,50.60
2019-04-22T16:15:32.227Z,50.50
2019-04-22T16:18:04.758Z,51.00
2019-04-22T16:20:36.230Z,51.10
2019-04-22T16:23:11.288Z,50.50
2019-04-22T16:25:51.278Z,50.40
2019-04-22T16:28:21.858Z,50.90
2019-04-22T16:30:53.262Z,51.20
2019-04-22T16:33:23.902Z,51.70
2019-04-22T16:35:55.076Z,52.00
2019-04-22T16:38:26.903Z,52.70
2019-04-22T16:40:58.739Z,52.40
2019-04-22T16:43:30.801Z,52.30
2019-04-22T16:46:01.550Z,52.50
2019-04-22T16:48:33.611Z,53.40
2019-04-22T16:51:04.467Z,53.10
2019-04-22T16:53:38.962Z,53.40
2019-04-22T16:56:10.839Z,53.50
2019-04-22T16:58:44.481Z,53.40
2019-04-22T17:01:20.737Z,54.00
2019-04-22T17:04:10.409Z,54.40
2019-04-22T17:06:43.613Z,54.80
2019-04-22T17:09:17.522Z,55.10
2019-04-22T17:11:47.978Z,55.20
2019-04-22T17:14:28.438Z,55.30
2019-04-22T17:16:50.704Z,55.60
2019-04-22T17:19:21.677Z,56.00
2019-04-22T17:21:53.464Z,55.90
2019-04-22T17:24:23.935Z,55.80
2019-04-22T17:26:54.734Z,56.30
2019-04-22T17:29:26.324Z,56.60
2019-04-22T17:32:03.892Z,56.30
2019-04-22T17:34:29.613Z,56.60
2019-04-22T17:37:04.051Z,57.00
2019-04-22T17:39:45.199Z,57.50
2019-04-22T17:42:26.430Z,57.70
2019-04-22T17:45:03.191Z,58.20
2019-04-22T17:47:30.233Z,57.90
2019-04-22T17:50:08.179Z,58.30
2019-04-22T17:52:36.421Z,59.00
2019-04-22T17:55:04.586Z,59.20
2019-04-22T17:57:38.454Z,59.30
2019-04-22T18:00:11.899Z,59.90
2019-04-22T18:02:43.009Z,60.10
2019-04-22T18:05:03.483Z,60.70
2019-04-22T18:07:48.815Z,61.10
2019-04-22T18:13:07.478Z,61.90
2019-04-22T18:15:29.460Z,62.30
2019-04-22T18:18:08.711Z,62.80
2019-04-22T18:20:29.313Z,63.00
2019-04-22T18:22:56.756Z,63.70
2019-04-22T18:25:36.357Z,64.20
2019-04-22T18:28:17.350Z,64.70
2019-04-22T18:30:36.286Z,65.00
2019-04-22T18:33:21.548Z,65.40
2019-04-22T18:35:46.916Z,66.20
2019-04-22T18:38:31.425Z,66.90
2019-04-22T18:40:53.197Z,67.50
2019-04-22T18:43:27.789Z,67.60
2019-04-22T18:46:07.042Z,68.20
2019-04-22T18:48:31.955Z,68.80
2019-04-22T18:51:13.206Z,68.90
2019-04-22T18:53:48.354Z,70.20
2019-04-22T18:56:19.262Z,70.10
2019-04-22T18:58:44.938Z,71.00
2019-04-22T19:01:08.204Z,71.60
2019-04-22T19:03:49.806Z,71.70
2019-04-22T19:06:42.066Z,72.60
2019-04-22T19:09:10.662Z,73.30
2019-04-22T19:11:43.694Z,73.90
2019-04-22T19:14:10.468Z,75.10
2019-04-22T19:17:05.953Z,75.80
2019-04-22T19:19:30.623Z,77.10
2019-04-22T19:21:47.680Z,78.30
2019-04-22T19:24:17.447Z,79.00
2019-04-22T19:27:09.078Z,79.00
2019-04-22T19:29:25.973Z,79.90
2019-04-22T19:31:57.323Z,80.30
2019-04-22T19:34:32.290Z,81.60
2019-04-22T19:37:03.567Z,82.50
2019-04-22T19:39:31.087Z,83.30
2019-04-22T19:42:33.681Z,84.00
2019-04-22T19:44:41.237Z,85.00
2019-04-22T19:47:25.482Z,85.60
2019-04-22T19:49:52.986Z,87.00
2019-04-22T19:52:18.947Z,87.70
2019-04-22T19:54:46.683Z,88.60
2019-04-22T19:57:20.310Z,89.20
2019-04-22T19:59:51.077Z,89.90
2019-04-22T20:02:28.625Z,90.30
2019-04-22T20:05:26.197Z,90.90
2019-04-22T20:07:46.914Z,90.90
2019-04-22T20:10:26.524Z,91.50
2019-04-22T20:12:53.180Z,91.50
2019-04-22T20:15:26.736Z,91.60
2019-04-22T20:18:21.785Z,91.60
2019-04-22T20:20:58.576Z,91.80
2019-04-22T20:23:24.261Z,92.10
2019-04-22T20:25:51.104Z,92.40
2019-04-22T20:28:35.809Z,92.50
2019-04-22T20:31:04.038Z,92.60
2019-04-22T20:33:44.588Z,92.70
2019-04-22T20:36:14.229Z,93.00
2019-04-22T20:38:42.544Z,93.20
2019-04-22T20:41:08.937Z,93.40
2019-04-22T20:43:46.543Z,93.60
2019-04-22T20:46:19.232Z,93.80
2019-04-22T20:48:56.909Z,94.10
2019-04-22T20:51:25.590Z,94.20
2019-04-22T20:53:57.938Z,94.10
2019-04-22T20:56:25.630Z,94.40
2019-04-22T20:59:05.050Z,94.40
2019-04-22T21:01:33.839Z,94.60
2019-04-22T21:03:51.580Z,94.50
2019-04-22T21:06:36.849Z,95.10
2019-04-22T21:09:12.012Z,95.20
2019-04-22T21:11:38.647Z,95.10
2019-04-22T21:14:12.042Z,95.00
2019-04-22T21:16:46.388Z,95.10
2019-04-22T21:19:26.276Z,94.90
2019-04-22T21:21:55.006Z,95.00
2019-04-22T21:24:20.655Z,94.90
2019-04-22T21:26:57.039Z,95.10
2019-04-22T21:29:20.567Z,95.00
2019-04-22T21:32:01.542Z,95.00
2019-04-22T21:34:42.581Z,94.90
2019-04-22T21:37:12.124Z,94.80
2019-04-22T21:39:33.789Z,94.90
2019-04-22T21:42:09.414Z,94.90
2019-04-22T21:44:43.239Z,94.90
2019-04-22T21:47:14.932Z,95.10
2019-04-22T21:49:53.383Z,94.90
2019-04-22T21:52:16.953Z,94.60
2019-04-22T21:54:57.141Z,94.60
2019-04-22T21:57:57.741Z,94.70
2019-04-22T22:00:17.382Z,94.60
2019-04-22T22:02:45.630Z,94.80
2019-04-22T22:05:08.154Z,95.10
2019-04-22T22:07:27.638Z,95.10
2019-04-22T22:10:16.972Z,95.40
2019-04-22T22:12:51.791Z,95.30
2019-04-22T22:15:22.673Z,95.50
2019-04-22T22:17:52.666Z,95.60
2019-04-22T22:20:30.641Z,95.70
2019-04-22T22:23:12.418Z,95.80
2019-04-22T22:25:35.005Z,95.80
2019-04-22T22:28:07.788Z,95.90
2019-04-22T22:33:10.896Z,96.70
2019-04-22T22:35:45.574Z,97.20
2019-04-22T22:38:19.532Z,97.00
2019-04-22T22:40:35.927Z,97.10
2019-04-22T22:43:11.953Z,97.00
2019-04-22T22:45:43.789Z,97.10
2019-04-22T22:48:37.008Z,97.00
2019-04-22T22:51:02.098Z,96.90
2019-04-22T22:56:07.820Z,97.10
2019-04-22T22:58:42.573Z,96.90
2019-04-22T23:01:09.041Z,97.00
2019-04-22T23:06:22.763Z,97.30
2019-04-22T23:08:48.487Z,97.20
2019-04-22T23:11:22.351Z,97.40
2019-04-22T23:13:55.587Z,97.50
2019-04-22T23:16:12.734Z,97.50
2019-04-22T23:18:34.119Z,97.70
2019-04-22T23:21:08.292Z,97.60
2019-04-22T23:23:59.320Z,97.70
2019-04-22T23:26:29.750Z,97.60
2019-04-22T23:29:15.668Z,98.10
2019-04-22T23:31:46.831Z,97.60
2019-04-22T23:34:22.726Z,97.40
2019-04-22T23:36:55.798Z,97.70
2019-04-22T23:39:42.254Z,97.90
2019-04-22T23:42:17.970Z,97.80
2019-04-22T23:45:00.369Z,97.80
2019-04-22T23:47:10.977Z,97.90
2019-04-22T23:49:53.353Z,98.10
2019-04-22T23:52:24.441Z,98.30
2019-04-22T23:55:03.327Z,98.30
2019-04-22T23:57:33.312Z,98.40
